createdAt,value
2023-04-02T00:00:21.419Z,9.25
2023-04-02T00:02:57.748Z,8.50
2023-04-02T00:05:51.455Z,9.38
2023-04-02T00:08:29.573Z,9.30
2023-04-02T00:11:02.823Z,8.80
2023-04-02T00:13:35.157Z,8.30
2023-04-02T00:16:04.703Z,7.07
2023-04-02T00:18:35.368Z,7.20
2023-04-02T00:21:13.750Z,7.75
2023-04-02T00:23:44.607Z,7.10
2023-04-02T00:26:30.520Z,7.43
2023-04-02T00:29:02.323Z,6.55
2023-04-02T00:31:33.617Z,6.77
2023-04-02T00:34:04.752Z,6.13
2023-04-02T00:36:35.848Z,5.97
2023-04-02T00:39:14.954Z,6.57
2023-04-02T00:41:47.213Z,5.80
2023-04-02T00:44:22.135Z,5.13
2023-04-02T00:46:51.298Z,5.43
2023-04-02T00:49:30.715Z,5.95
2023-04-02T00:52:03.437Z,5.90
2023-04-02T00:54:34.148Z,5.72
2023-04-02T00:57:03.011Z,6.32
2023-04-02T00:59:33.102Z,6.40
2023-04-02T01:02:22.453Z,6.30
2023-04-02T01:04:54.681Z,7.68
2023-04-02T01:07:35.908Z,7.28
2023-04-02T01:10:19.390Z,7.55
2023-04-02T01:12:59.057Z,6.80
2023-04-02T01:15:32.598Z,7.55
2023-04-02T01:18:18.656Z,7.10
2023-04-02T01:21:19.542Z,7.32
2023-04-02T01:24:00.017Z,7.55
2023-04-02T01:26:47.999Z,7.07
2023-04-02T01:29:20.727Z,7.35
2023-04-02T01:31:50.398Z,7.43
2023-04-02T01:34:20.966Z,7.22
2023-04-02T01:37:02.180Z,6.78
2023-04-02T01:39:41.743Z,6.22
2023-04-02T01:42:16.621Z,6.30
2023-04-02T01:44:50.431Z,6.72
2023-04-02T01:47:20.859Z,7.15
2023-04-02T01:49:49.294Z,7.22
2023-04-02T01:52:21.121Z,7.80
2023-04-02T01:54:49.441Z,7.22
2023-04-02T01:57:17.754Z,7.07
2023-04-02T01:59:47.479Z,7.35
2023-04-02T02:02:19.845Z,6.82
2023-04-02T02:04:47.975Z,7.50
2023-04-02T02:07:17.874Z,6.15
2023-04-02T02:09:46.609Z,6.38
2023-04-02T02:12:16.380Z,6.80
2023-04-02T02:14:49.838Z,6.28
2023-04-02T02:17:21.604Z,7.82
2023-04-02T02:19:53.662Z,7.97
2023-04-02T02:22:28.510Z,7.90
2023-04-02T02:24:58.621Z,8.57
2023-04-02T02:27:50.718Z,7.80
2023-04-02T02:30:23.424Z,6.83
2023-04-02T02:32:57.524Z,8.38
2023-04-02T02:35:32.020Z,8.18
2023-04-02T02:38:12.845Z,7.38
2023-04-02T02:40:46.269Z,8.43
2023-04-02T02:43:16.887Z,8.32
2023-04-02T02:45:48.432Z,8.23
2023-04-02T02:48:20.474Z,7.65
2023-04-02T02:50:49.126Z,7.20
2023-04-02T02:53:20.729Z,6.82
2023-04-02T02:55:51.960Z,6.53
2023-04-02T02:58:26.497Z,6.10
2023-04-02T03:00:56.599Z,5.90
2023-04-02T03:03:29.221Z,5.95
2023-04-02T03:06:02.241Z,6.35
2023-04-02T03:08:34.794Z,4.85
2023-04-02T03:13:36.751Z,4.18
2023-04-02T03:16:12.438Z,5.15
2023-04-02T03:18:47.299Z,4.82
2023-04-02T03:21:23.979Z,4.50
2023-04-02T03:23:56.591Z,4.80
2023-04-02T03:26:31.420Z,4.70
2023-04-02T03:29:03.899Z,4.88
2023-04-02T03:31:38.909Z,5.35
2023-04-02T03:34:14.700Z,4.40
2023-04-02T03:36:49.798Z,5.53
2023-04-02T03:39:23.908Z,5.15
2023-04-02T03:41:56.439Z,5.43
2023-04-02T03:44:29.091Z,5.43
2023-04-02T03:47:02.297Z,5.72
2023-04-02T03:49:35.494Z,5.63
2023-04-02T03:52:07.491Z,5.85
2023-04-02T03:54:35.841Z,5.78
2023-04-02T03:57:04.506Z,5.97
2023-04-02T03:59:40.866Z,6.82
2023-04-02T04:02:28.178Z,8.00
2023-04-02T04:04:58.180Z,7.85
2023-04-02T04:07:32.616Z,8.00
2023-04-02T04:10:02.266Z,9.27
2023-04-02T04:12:33.767Z,8.10
2023-04-02T04:15:07.697Z,8.57
2023-04-02T04:17:51.761Z,8.18
2023-04-02T04:20:23.277Z,7.70
2023-04-02T04:22:55.753Z,8.13
2023-04-02T04:25:29.539Z,7.53
2023-04-02T04:28:07.773Z,6.85
2023-04-02T04:30:45.300Z,6.82
2023-04-02T04:33:23.055Z,6.65
2023-04-02T04:35:55.875Z,5.82
2023-04-02T04:38:33.001Z,6.63
2023-04-02T04:41:06.723Z,6.40
2023-04-02T04:43:43.952Z,6.35
2023-04-02T04:46:16.112Z,5.85
2023-04-02T04:48:53.290Z,5.93
2023-04-02T04:51:25.360Z,5.70
2023-04-02T04:53:56.275Z,4.78
2023-04-02T04:56:27.731Z,5.07
2023-04-02T04:59:02.214Z,5.93
2023-04-02T05:01:38.227Z,4.28
2023-04-02T05:04:17.125Z,3.88
2023-04-02T05:06:53.207Z,4.18
2023-04-02T05:09:25.882Z,4.68
2023-04-02T05:11:57.127Z,5.40
2023-04-02T05:14:32.579Z,4.50
2023-04-02T05:17:07.298Z,4.38
2023-04-02T05:19:44.429Z,3.92
2023-04-02T05:22:23.676Z,3.40
2023-04-02T05:25:00.685Z,3.22
2023-04-02T05:27:37.523Z,3.35
2023-04-02T05:30:14.207Z,3.88
2023-04-02T05:32:47.200Z,3.40
2023-04-02T05:35:20.851Z,2.97
2023-04-02T05:37:51.464Z,3.20
2023-04-02T05:40:27.702Z,3.35
2023-04-02T05:42:56.804Z,3.53
2023-04-02T05:45:31.801Z,3.00
2023-04-02T05:48:03.993Z,3.38
2023-04-02T05:50:37.499Z,2.88
2023-04-02T05:53:13.855Z,2.75
2023-04-02T05:55:50.557Z,3.00
2023-04-02T06:01:07.777Z,2.70
2023-04-02T06:03:46.568Z,2.67
2023-04-02T06:06:27.048Z,2.47
2023-04-02T06:09:00.239Z,2.60
2023-04-02T06:11:32.641Z,2.30
2023-04-02T06:14:01.202Z,2.05
2023-04-02T06:16:31.995Z,2.88
2023-04-02T06:19:00.133Z,2.28
2023-04-02T06:21:29.646Z,2.30
2023-04-02T06:24:03.540Z,2.50
2023-04-02T06:26:35.289Z,2.33
2023-04-02T06:29:08.200Z,2.35
2023-04-02T06:31:40.214Z,1.83
2023-04-02T06:34:16.334Z,2.00
2023-04-02T06:36:46.524Z,2.30
2023-04-02T06:39:19.865Z,2.28
2023-04-02T06:41:48.240Z,2.03
2023-04-02T06:44:20.040Z,2.47
2023-04-02T06:46:52.451Z,2.17
2023-04-02T06:49:24.974Z,2.10
2023-04-02T06:51:56.332Z,2.03
2023-04-02T06:54:24.576Z,2.38
2023-04-02T06:56:56.350Z,2.25
2023-04-02T06:59:24.758Z,1.95
2023-04-02T07:01:57.270Z,2.00
2023-04-02T07:04:27.607Z,2.22
2023-04-02T07:06:57.223Z,1.92
2023-04-02T07:09:25.927Z,2.15
2023-04-02T07:11:54.012Z,2.20
2023-04-02T07:14:22.114Z,2.75
2023-04-02T07:16:50.361Z,2.13
2023-04-02T07:19:21.286Z,2.35
2023-04-02T07:21:49.444Z,1.92
2023-04-02T07:24:18.870Z,2.08
2023-04-02T07:26:48.305Z,2.40
2023-04-02T07:29:17.511Z,2.20
2023-04-02T07:31:45.722Z,1.80
2023-04-02T07:34:13.899Z,2.13
2023-04-02T07:36:42.321Z,1.98
2023-04-02T07:39:13.404Z,2.08
2023-04-02T07:41:54.453Z,1.70
2023-04-02T07:44:22.617Z,2.30
2023-04-02T07:46:51.198Z,1.98
2023-04-02T07:49:19.282Z,2.05
2023-04-02T07:51:47.883Z,2.67
2023-04-02T07:54:15.917Z,2.28
2023-04-02T07:56:46.248Z,2.30
2023-04-02T07:59:15.889Z,2.20
2023-04-02T08:01:43.970Z,2.95
2023-04-02T08:04:19.492Z,2.95
2023-04-02T08:06:48.337Z,2.80
2023-04-02T08:09:16.775Z,2.13
2023-04-02T08:11:46.644Z,2.53
2023-04-02T08:14:16.414Z,2.05
2023-04-02T08:16:46.984Z,2.08
2023-04-02T08:19:15.605Z,1.90
2023-04-02T08:21:50.037Z,2.10
2023-04-02T08:24:20.177Z,2.17
2023-04-02T08:26:49.001Z,1.80
2023-04-02T08:29:18.465Z,2.00
2023-04-02T08:31:46.581Z,2.03
2023-04-02T08:34:14.652Z,2.03
2023-04-02T08:36:45.602Z,2.17
2023-04-02T08:39:13.804Z,2.00
2023-04-02T08:41:46.977Z,2.10
2023-04-02T08:44:40.910Z,2.17
2023-04-02T08:47:10.964Z,2.40
2023-04-02T08:49:44.065Z,2.47
2023-04-02T08:52:21.987Z,3.15
2023-04-02T08:54:51.338Z,2.25
2023-04-02T08:57:28.547Z,2.35
2023-04-02T09:00:02.847Z,2.67
2023-04-02T09:02:38.821Z,2.50
2023-04-02T09:05:16.383Z,3.00
2023-04-02T09:07:44.528Z,2.70
2023-04-02T09:10:16.402Z,2.97
2023-04-02T09:12:47.222Z,2.72
2023-04-02T09:15:29.476Z,2.40
2023-04-02T09:18:01.255Z,2.70
2023-04-02T09:20:29.708Z,2.55
2023-04-02T09:22:58.999Z,2.88
2023-04-02T09:25:29.789Z,2.00
2023-04-02T09:28:01.751Z,2.33
2023-04-02T09:30:48.213Z,1.75
2023-04-02T09:33:19.387Z,2.13
2023-04-02T09:35:56.788Z,1.90
2023-04-02T09:38:29.146Z,2.28
2023-04-02T09:41:01.491Z,2.10
2023-04-02T09:43:31.280Z,2.05
2023-04-02T09:46:02.913Z,2.50
2023-04-02T09:48:35.397Z,2.15
2023-04-02T09:51:08.894Z,2.17
2023-04-02T09:53:40.519Z,2.40
2023-04-02T09:56:15.755Z,2.40
2023-04-02T09:58:45.635Z,2.67
2023-04-02T10:01:30.498Z,2.33
2023-04-02T10:04:00.051Z,2.42
2023-04-02T10:06:30.697Z,1.80
2023-04-02T10:08:59.423Z,2.08
2023-04-02T10:11:46.124Z,1.77
2023-04-02T10:14:20.230Z,1.83
2023-04-02T10:16:53.078Z,1.90
2023-04-02T10:19:30.070Z,1.80
2023-04-02T10:22:00.961Z,1.90
2023-04-02T10:24:30.131Z,1.80
2023-04-02T10:27:09.852Z,1.67
2023-04-02T10:29:58.303Z,1.88
2023-04-02T10:32:33.451Z,1.90
2023-04-02T10:35:04.685Z,2.20
2023-04-02T10:37:55.894Z,1.90
2023-04-02T10:40:29.822Z,1.83
2023-04-02T10:43:23.625Z,1.60
2023-04-02T10:45:57.867Z,2.20
2023-04-02T10:48:34.086Z,2.22
2023-04-02T10:51:07.936Z,1.70
2023-04-02T10:53:45.180Z,2.10
2023-04-02T10:56:15.518Z,1.52
2023-04-02T10:58:57.257Z,1.65
2023-04-02T11:01:29.388Z,1.85
2023-04-02T11:04:02.582Z,1.40
2023-04-02T11:06:34.032Z,1.80
2023-04-02T11:09:06.141Z,1.90
2023-04-02T11:11:39.891Z,1.73
2023-04-02T11:14:15.132Z,1.80
2023-04-02T11:16:44.863Z,1.88
2023-04-02T11:19:27.576Z,1.80
2023-04-02T11:22:00.991Z,1.75
2023-04-02T11:24:49.767Z,1.50
2023-04-02T11:27:24.312Z,1.58
2023-04-02T11:29:56.547Z,1.80
2023-04-02T11:32:35.770Z,2.30
2023-04-02T11:35:27.015Z,1.50
2023-04-02T11:37:56.575Z,1.98
2023-04-02T11:40:53.012Z,1.50
2023-04-02T11:43:53.000Z,1.92
2023-04-02T11:46:46.688Z,1.80
2023-04-02T11:49:40.862Z,1.63
2023-04-02T11:52:24.529Z,1.83
2023-04-02T11:55:24.459Z,1.70
2023-04-02T11:58:32.243Z,2.00
2023-04-02T12:01:40.463Z,1.73
2023-04-02T12:04:38.280Z,1.70
2023-04-02T12:07:26.862Z,2.00
2023-04-02T12:09:59.397Z,1.63
2023-04-02T12:12:33.602Z,1.92
2023-04-02T12:15:02.069Z,1.80
2023-04-02T12:17:32.710Z,1.80
2023-04-02T12:20:07.874Z,1.92
2023-04-02T12:22:39.648Z,1.67
2023-04-02T12:25:32.245Z,1.88
2023-04-02T12:28:17.851Z,1.60
2023-04-02T12:30:47.358Z,1.63
2023-04-02T12:33:27.824Z,1.77
2023-04-02T12:35:58.777Z,1.90
2023-04-02T12:38:28.424Z,1.67
2023-04-02T12:40:59.546Z,1.52
2023-04-02T12:43:29.295Z,1.50
2023-04-02T12:46:00.421Z,1.90
2023-04-02T12:48:29.602Z,1.95
2023-04-02T12:50:58.240Z,1.85
2023-04-02T12:53:34.595Z,1.90
2023-04-02T12:56:05.250Z,1.80
2023-04-02T12:58:36.933Z,1.85
2023-04-02T13:01:14.226Z,2.13
2023-04-02T13:03:42.620Z,1.80
2023-04-02T13:06:30.645Z,1.95
2023-04-02T13:08:59.941Z,1.80
2023-04-02T13:11:38.587Z,1.40
2023-04-02T13:14:09.044Z,1.70
2023-04-02T13:16:39.891Z,1.65
2023-04-02T13:19:21.041Z,1.50
2023-04-02T13:21:49.491Z,1.98
2023-04-02T13:24:19.111Z,1.70
2023-04-02T13:26:49.851Z,1.58
2023-04-02T13:29:25.202Z,1.58
2023-04-02T13:31:54.671Z,1.55
2023-04-02T13:34:22.833Z,1.70
2023-04-02T13:36:50.989Z,1.70
2023-04-02T13:39:20.882Z,1.70
2023-04-02T13:41:52.654Z,1.90
2023-04-02T13:44:23.719Z,1.30
2023-04-02T13:46:52.571Z,1.60
2023-04-02T13:49:20.923Z,1.33
2023-04-02T13:51:51.824Z,1.58
2023-04-02T13:54:25.776Z,1.80
2023-04-02T13:56:57.171Z,1.70
2023-04-02T13:59:26.058Z,1.25
2023-04-02T14:01:58.958Z,1.73
2023-04-02T14:04:30.798Z,1.52
2023-04-02T14:07:27.425Z,1.47
2023-04-02T14:10:06.406Z,1.40
2023-04-02T14:12:53.970Z,1.48
2023-04-02T14:15:40.694Z,1.80
2023-04-02T14:18:36.709Z,1.33
2023-04-02T14:21:14.525Z,1.40
2023-04-02T14:23:56.490Z,1.60
2023-04-02T14:26:39.498Z,1.65
2023-04-02T14:31:48.129Z,1.30
2023-04-02T14:34:29.230Z,1.83
2023-04-02T14:37:06.891Z,1.42
2023-04-02T14:39:46.115Z,1.27
2023-04-02T14:42:18.363Z,1.50
2023-04-02T14:44:53.351Z,1.38
2023-04-02T14:47:27.344Z,1.73
2023-04-02T14:50:01.646Z,1.55
2023-04-02T14:52:34.544Z,1.40
2023-04-02T14:57:36.529Z,1.50
2023-04-02T15:00:24.254Z,1.35
2023-04-02T15:02:58.670Z,1.70
2023-04-02T15:05:35.404Z,1.50
2023-04-02T15:08:08.218Z,1.40
2023-04-02T15:13:16.323Z,1.60
2023-04-02T15:15:50.459Z,1.38
2023-04-02T15:18:19.497Z,1.50
2023-04-02T15:20:55.016Z,1.50
2023-04-02T15:23:35.594Z,1.60
2023-04-02T15:26:12.417Z,1.75
2023-04-02T15:28:45.022Z,1.30
2023-04-02T15:31:16.540Z,1.75
2023-04-02T15:33:46.566Z,1.30
2023-04-02T15:36:45.880Z,1.48
2023-04-02T15:39:38.055Z,1.30
2023-04-02T15:42:16.170Z,1.45
2023-04-02T15:44:57.814Z,1.45
2023-04-02T15:47:37.820Z,1.25
2023-04-02T15:50:20.468Z,1.30
2023-04-02T15:52:55.881Z,1.20
2023-04-02T15:55:34.296Z,1.48
2023-04-02T15:58:25.705Z,1.42
2023-04-02T16:01:09.616Z,1.25
2023-04-02T16:04:03.191Z,1.67
2023-04-02T16:06:41.373Z,1.50
2023-04-02T16:09:23.452Z,1.40
2023-04-02T16:11:58.455Z,1.60
2023-04-02T16:14:30.224Z,1.10
2023-04-02T16:17:08.072Z,1.23
2023-04-02T16:19:50.420Z,1.27
2023-04-02T16:22:24.839Z,1.70
2023-04-02T16:25:01.034Z,1.40
2023-04-02T16:27:34.385Z,1.30
2023-04-02T16:30:19.005Z,1.33
2023-04-02T16:33:00.923Z,1.40
2023-04-02T16:35:43.505Z,1.27
2023-04-02T16:41:06.913Z,1.25
2023-04-02T16:43:47.187Z,1.30
2023-04-02T16:46:38.242Z,1.40
2023-04-02T16:49:17.719Z,1.40
2023-04-02T16:51:58.935Z,1.20
2023-04-02T16:54:34.813Z,2.13
2023-04-02T16:57:17.419Z,1.25
2023-04-02T16:59:57.705Z,1.20
2023-04-02T17:02:37.447Z,1.27
2023-04-02T17:05:15.960Z,1.48
2023-04-02T17:07:52.776Z,1.10
2023-04-02T17:10:30.829Z,1.40
2023-04-02T17:13:16.937Z,1.60
2023-04-02T17:15:50.931Z,1.50
2023-04-02T17:18:20.973Z,1.30
2023-04-02T17:20:49.552Z,1.20
2023-04-02T17:23:22.080Z,1.30
2023-04-02T17:25:55.182Z,1.40
2023-04-02T17:28:29.634Z,1.50
2023-04-02T17:31:01.254Z,1.33
2023-04-02T17:33:29.349Z,1.30
2023-04-02T17:36:10.921Z,1.40
2023-04-02T17:38:46.263Z,1.10
2023-04-02T17:41:20.742Z,1.30
2023-04-02T17:43:57.973Z,1.23
2023-04-02T17:46:36.172Z,1.30
2023-04-02T17:49:13.061Z,1.30
2023-04-02T17:51:47.437Z,1.30
2023-04-02T17:54:30.919Z,1.17
2023-04-02T17:57:18.396Z,1.10
2023-04-02T18:00:01.702Z,1.55
2023-04-02T18:02:43.237Z,1.38
2023-04-02T18:05:26.889Z,1.30
2023-04-02T18:08:08.062Z,1.30
2023-04-02T18:10:47.707Z,1.50
2023-04-02T18:13:25.872Z,1.38
2023-04-02T18:16:28.270Z,1.48
2023-04-02T18:19:11.786Z,1.30
2023-04-02T18:21:46.439Z,1.80
2023-04-02T18:24:34.414Z,1.23
2023-04-02T18:27:17.832Z,1.40
2023-04-02T18:29:57.659Z,1.50
2023-04-02T18:32:53.969Z,1.45
2023-04-02T18:35:26.549Z,1.50
2023-04-02T18:38:17.204Z,1.30
2023-04-02T18:41:05.829Z,1.50
2023-04-02T18:43:43.886Z,1.88
2023-04-02T18:46:23.401Z,1.92
2023-04-02T18:48:57.876Z,1.95
2023-04-02T18:51:27.791Z,1.73
2023-04-02T18:54:10.989Z,1.70
2023-04-02T18:56:41.658Z,2.17
2023-04-02T18:59:29.626Z,2.10
2023-04-02T19:02:01.431Z,1.98
2023-04-02T19:04:33.708Z,1.80
2023-04-02T19:07:06.153Z,2.53
2023-04-02T19:09:41.138Z,2.92
2023-04-02T19:12:16.623Z,2.80
2023-04-02T19:14:49.711Z,2.38
2023-04-02T19:17:28.401Z,2.50
2023-04-02T19:20:08.731Z,2.25
2023-04-02T19:22:43.342Z,2.28
2023-04-02T19:25:36.035Z,1.92
2023-04-02T19:28:09.473Z,2.45
2023-04-02T19:31:09.309Z,2.25
2023-04-02T19:33:46.563Z,1.80
2023-04-02T19:36:41.762Z,2.00
2023-04-02T19:39:34.818Z,1.60
2023-04-02T19:42:11.846Z,1.92
2023-04-02T19:44:45.652Z,1.90
2023-04-02T19:47:17.378Z,1.80
2023-04-02T19:49:46.108Z,1.80
2023-04-02T19:52:14.258Z,1.98
2023-04-02T19:54:42.308Z,2.25
2023-04-02T19:57:15.599Z,2.17
2023-04-02T19:59:43.943Z,3.17
2023-04-02T20:02:12.605Z,3.38
2023-04-02T20:04:49.850Z,3.28
2023-04-02T20:07:18.655Z,3.20
2023-04-02T20:09:46.681Z,3.67
2023-04-02T20:12:14.813Z,3.53
2023-04-02T20:14:45.449Z,3.60
2023-04-02T20:17:13.556Z,2.90
2023-04-02T20:19:43.095Z,3.03
2023-04-02T20:22:11.281Z,3.90
2023-04-02T20:24:40.998Z,3.85
2023-04-02T20:27:14.404Z,4.10
2023-04-02T20:29:42.610Z,3.70
2023-04-02T20:32:15.902Z,4.45
2023-04-02T20:34:49.192Z,4.15
2023-04-02T20:37:17.310Z,4.70
2023-04-02T20:39:45.536Z,4.82
2023-04-02T20:42:14.300Z,4.55
2023-04-02T20:44:42.688Z,4.68
2023-04-02T20:47:11.117Z,4.50
2023-04-02T20:49:39.264Z,4.07
2023-04-02T20:52:09.300Z,3.95
2023-04-02T20:54:37.660Z,3.97
2023-04-02T20:57:06.376Z,3.25
2023-04-02T20:59:36.865Z,3.55
2023-04-02T21:02:04.983Z,3.20
2023-04-02T21:04:33.099Z,3.20
2023-04-02T21:07:03.969Z,2.88
2023-04-02T21:09:33.560Z,3.45
2023-04-02T21:12:01.610Z,2.42
2023-04-02T21:14:36.202Z,2.40
2023-04-02T21:17:04.396Z,2.45
2023-04-02T21:19:32.816Z,2.35
2023-04-02T21:22:01.047Z,2.50
2023-04-02T21:24:29.103Z,2.60
2023-04-02T21:26:58.523Z,2.78
2023-04-02T21:29:26.625Z,2.05
2023-04-02T21:31:58.613Z,2.35
2023-04-02T21:34:27.991Z,2.20
2023-04-02T21:36:56.664Z,2.30
2023-04-02T21:39:25.393Z,2.00
2023-04-02T21:41:54.875Z,1.58
2023-04-02T21:44:24.894Z,2.05
2023-04-02T21:46:54.261Z,1.98
2023-04-02T21:49:23.947Z,1.90
2023-04-02T21:51:54.759Z,2.22
2023-04-02T21:54:23.091Z,1.80
2023-04-02T21:56:51.586Z,2.10
2023-04-02T21:59:20.048Z,1.73
2023-04-02T22:01:52.075Z,1.80
2023-04-02T22:04:22.473Z,1.77
2023-04-02T22:06:52.283Z,1.75
2023-04-02T22:09:22.585Z,1.95
2023-04-02T22:11:58.797Z,2.03
2023-04-02T22:14:27.824Z,1.50
2023-04-02T22:16:58.804Z,1.73
2023-04-02T22:19:27.836Z,2.05
2023-04-02T22:21:56.576Z,1.60
2023-04-02T22:24:25.277Z,1.67
2023-04-02T22:26:53.688Z,1.80
2023-04-02T22:29:22.051Z,1.83
2023-04-02T22:31:53.215Z,1.33
2023-04-02T22:34:22.711Z,1.98
2023-04-02T22:36:50.775Z,1.60
2023-04-02T22:39:18.971Z,1.98
2023-04-02T22:41:47.070Z,1.98
2023-04-02T22:44:17.081Z,2.60
2023-04-02T22:46:45.468Z,1.83
2023-04-02T22:49:19.184Z,1.60
2023-04-02T22:51:49.040Z,1.88
2023-04-02T22:54:17.436Z,1.88
2023-04-02T22:56:45.518Z,1.65
2023-04-02T22:59:13.808Z,2.10
2023-04-02T23:01:41.998Z,1.40
2023-04-02T23:04:10.403Z,1.55
2023-04-02T23:06:38.523Z,1.55
2023-04-02T23:09:08.102Z,2.10
2023-04-02T23:11:36.409Z,1.52
2023-04-02T23:14:07.327Z,1.52
2023-04-02T23:16:35.542Z,1.98
2023-04-02T23:19:03.880Z,1.92
2023-04-02T23:21:32.031Z,1.70
2023-04-02T23:24:00.158Z,2.20
2023-04-02T23:26:31.825Z,1.75
2023-04-02T23:29:00.755Z,1.73
2023-04-02T23:31:29.326Z,1.65
2023-04-02T23:33:57.343Z,2.00
2023-04-02T23:36:27.860Z,1.70
2023-04-02T23:38:58.008Z,1.75
2023-04-02T23:41:27.811Z,1.67
2023-04-02T23:43:58.604Z,1.63
2023-04-02T23:46:26.989Z,1.70
2023-04-02T23:48:55.941Z,1.65
2023-04-02T23:51:24.493Z,1.80
2023-04-02T23:53:55.350Z,1.70
2023-04-02T23:56:24.106Z,1.70
2023-04-02T23:58:52.175Z,1.60
